SAS1415 ESSA-EKCH
Flight info
| Callsign | SAS1415 |
|---|---|
| Flight time | 1h 0m |
| Altitude | 40000 |
| Route | PETEV2K PETEV N872 ERNOV ERNOV3A |
| Aircraft | B736/M-SDE2E3FGHIRWXY/LB1 |
Departure
| Time | 2026-04-23 19:56 |
|---|---|
| Airport | Stockholm-Arlanda Airport (ESSA) |
Arrival
| Time | 2026-04-23 20:56 |
|---|---|
| Airport | Copenhagen Kastrup Airport (EKCH) |
| Time | Latitude | Longitude | Altitude | Speed | Heading |
|---|---|---|---|---|---|
| 2026-04-23 19:32 | 59.65344 | 17.93798 | 136 ft | 0 kts | 255° |
| 2026-04-23 19:43 | 59.65346 | 17.93820 | 137 ft | 4 kts | 257° |
| 2026-04-23 19:43 | 59.65352 | 17.93872 | 137 ft | 4 kts | 263° |
| 2026-04-23 19:43 | 59.65353 | 17.93925 | 136 ft | 4 kts | 276° |
| 2026-04-23 19:44 | 59.65346 | 17.93971 | 136 ft | 4 kts | 321° |
| 2026-04-23 19:44 | 59.65336 | 17.93983 | 136 ft | 1 kts | 345° |
| 2026-04-23 19:44 | 59.65335 | 17.93983 | 136 ft | 0 kts | 345° |
| 2026-04-23 19:49 | 59.65343 | 17.93979 | 137 ft | 4 kts | 345° |
| 2026-04-23 19:49 | 59.65379 | 17.93961 | 137 ft | 7 kts | 346° |
| 2026-04-23 19:49 | 59.65438 | 17.93935 | 137 ft | 10 kts | 347° |
| 2026-04-23 19:50 | 59.65516 | 17.93892 | 137 ft | 13 kts | 343° |
| 2026-04-23 19:50 | 59.65591 | 17.93827 | 136 ft | 9 kts | 303° |
| 2026-04-23 19:50 | 59.65583 | 17.93700 | 137 ft | 9 kts | 255° |
| 2026-04-23 19:50 | 59.65566 | 17.93578 | 136 ft | 9 kts | 255° |
| 2026-04-23 19:51 | 59.65550 | 17.93459 | 136 ft | 9 kts | 255° |
| 2026-04-23 19:51 | 59.65550 | 17.93341 | 137 ft | 9 kts | 297° |
| 2026-04-23 19:51 | 59.65602 | 17.93292 | 137 ft | 9 kts | 358° |
| 2026-04-23 19:51 | 59.65653 | 17.93343 | 137 ft | 8 kts | 48° |
| 2026-04-23 19:52 | 59.65679 | 17.93400 | 137 ft | 8 kts | 49° |
| 2026-04-23 19:52 | 59.65696 | 17.93438 | 137 ft | 0 kts | 49° |
| 2026-04-23 19:53 | 59.65707 | 17.93461 | 137 ft | 5 kts | 45° |
| 2026-04-23 19:53 | 59.65745 | 17.93536 | 137 ft | 10 kts | 45° |
| 2026-04-23 19:53 | 59.65785 | 17.93616 | 137 ft | 14 kts | 46° |
| 2026-04-23 19:54 | 59.65855 | 17.93759 | 136 ft | 14 kts | 49° |
| 2026-04-23 19:54 | 59.65873 | 17.93842 | 136 ft | 0 kts | 76° |
| 2026-04-23 19:56 | 59.65875 | 17.93861 | 136 ft | 13 kts | 76° |
| 2026-04-23 19:56 | 59.65991 | 17.94768 | 136 ft | 123 kts | 76° |
| 2026-04-23 19:56 | 59.66260 | 17.96923 | 460 ft | 191 kts | 76° |
| 2026-04-23 19:56 | 59.66596 | 17.99754 | 1115 ft | 233 kts | 71° |
| 2026-04-23 19:57 | 59.67018 | 18.02870 | 2387 ft | 240 kts | 67° |
| 2026-04-23 19:57 | 59.67755 | 18.05795 | 3249 ft | 235 kts | 44° |
| 2026-04-23 19:57 | 59.69029 | 18.07655 | 4148 ft | 224 kts | 17° |
| 2026-04-23 19:57 | 59.70498 | 18.08034 | 5357 ft | 208 kts | 348° |
| 2026-04-23 19:58 | 59.71839 | 18.07060 | 6384 ft | 207 kts | 326° |
| 2026-04-23 19:58 | 59.72846 | 18.05056 | 7274 ft | 214 kts | 305° |
| 2026-04-23 19:58 | 59.73335 | 18.02194 | 8174 ft | 230 kts | 280° |
| 2026-04-23 19:58 | 59.73094 | 17.98943 | 9115 ft | 250 kts | 254° |
| 2026-04-23 19:59 | 59.72183 | 17.95894 | 10084 ft | 264 kts | 239° |
| 2026-04-23 19:59 | 59.71057 | 17.92972 | 11036 ft | 269 kts | 238° |
| 2026-04-23 19:59 | 59.70094 | 17.89811 | 11928 ft | 269 kts | 253° |
| 2026-04-23 19:59 | 59.69374 | 17.86349 | 12895 ft | 273 kts | 258° |
| 2026-04-23 20:00 | 59.68871 | 17.82726 | 13880 ft | 274 kts | 266° |
| 2026-04-23 20:00 | 59.68453 | 17.79018 | 14797 ft | 277 kts | 266° |
| 2026-04-23 20:00 | 59.68006 | 17.75292 | 15803 ft | 280 kts | 266° |
| 2026-04-23 20:00 | 59.67549 | 17.71523 | 16789 ft | 283 kts | 266° |
| 2026-04-23 20:01 | 59.66961 | 17.67741 | 17755 ft | 299 kts | 251° |
| 2026-04-23 20:01 | 59.65530 | 17.64547 | 18614 ft | 328 kts | 219° |
| 2026-04-23 20:01 | 59.63377 | 17.62715 | 19313 ft | 349 kts | 202° |
| 2026-04-23 20:01 | 59.60932 | 17.61338 | 19541 ft | 379 kts | 199° |
| 2026-04-23 20:02 | 59.58293 | 17.59904 | 19740 ft | 407 kts | 200° |
| 2026-04-23 20:02 | 59.55491 | 17.58277 | 19903 ft | 432 kts | 200° |
| 2026-04-23 20:02 | 59.52578 | 17.56271 | 20069 ft | 450 kts | 210° |
| 2026-04-23 20:02 | 59.50063 | 17.52778 | 20516 ft | 451 kts | 227° |
| 2026-04-23 20:03 | 59.47732 | 17.48608 | 21222 ft | 454 kts | 228° |
| 2026-04-23 20:03 | 59.45403 | 17.44391 | 21963 ft | 457 kts | 229° |
| 2026-04-23 20:03 | 59.43041 | 17.40138 | 22644 ft | 462 kts | 228° |
| 2026-04-23 20:03 | 59.40646 | 17.35872 | 23309 ft | 467 kts | 228° |
| 2026-04-23 20:04 | 59.38214 | 17.31586 | 23893 ft | 472 kts | 228° |
| 2026-04-23 20:04 | 59.35759 | 17.27293 | 24536 ft | 474 kts | 227° |
| 2026-04-23 20:04 | 59.33284 | 17.22987 | 25195 ft | 476 kts | 227° |
| 2026-04-23 20:04 | 59.30801 | 17.18678 | 25794 ft | 478 kts | 227° |
| 2026-04-23 20:05 | 59.28307 | 17.14354 | 26364 ft | 481 kts | 227° |
| 2026-04-23 20:05 | 59.25794 | 17.10000 | 26938 ft | 484 kts | 227° |
| 2026-04-23 20:05 | 59.23271 | 17.05636 | 27493 ft | 486 kts | 227° |
| 2026-04-23 20:05 | 59.20728 | 17.01247 | 28033 ft | 489 kts | 227° |
| 2026-04-23 20:06 | 59.18176 | 16.96952 | 28541 ft | 493 kts | 226° |
| 2026-04-23 20:06 | 59.15508 | 16.92600 | 29052 ft | 496 kts | 225° |
| 2026-04-23 20:06 | 59.12876 | 16.88364 | 29530 ft | 498 kts | 225° |
| 2026-04-23 20:06 | 59.10202 | 16.84072 | 30062 ft | 498 kts | 225° |
| 2026-04-23 20:07 | 59.07536 | 16.79789 | 30629 ft | 495 kts | 225° |
| 2026-04-23 20:07 | 59.04886 | 16.75522 | 31172 ft | 494 kts | 225° |
| 2026-04-23 20:07 | 59.02239 | 16.71254 | 31652 ft | 494 kts | 225° |
| 2026-04-23 20:07 | 58.99589 | 16.66982 | 32116 ft | 495 kts | 226° |
| 2026-04-23 20:08 | 58.96939 | 16.62718 | 32599 ft | 494 kts | 226° |
| 2026-04-23 20:08 | 58.94297 | 16.58477 | 33083 ft | 494 kts | 226° |
| 2026-04-23 20:08 | 58.91648 | 16.54237 | 33559 ft | 493 kts | 226° |
| 2026-04-23 20:08 | 58.89031 | 16.50063 | 33996 ft | 494 kts | 226° |
| 2026-04-23 20:09 | 58.86370 | 16.45854 | 34401 ft | 493 kts | 226° |
| 2026-04-23 20:09 | 58.83719 | 16.41679 | 34800 ft | 491 kts | 225° |
| 2026-04-23 20:09 | 58.81074 | 16.37521 | 35268 ft | 488 kts | 225° |
| 2026-04-23 20:09 | 58.78451 | 16.33399 | 35708 ft | 486 kts | 225° |
| 2026-04-23 20:10 | 58.75834 | 16.29287 | 36085 ft | 486 kts | 225° |
| 2026-04-23 20:10 | 58.73212 | 16.25179 | 36463 ft | 485 kts | 225° |
| 2026-04-23 20:10 | 58.70598 | 16.21086 | 36839 ft | 484 kts | 225° |
| 2026-04-23 20:10 | 58.67985 | 16.16995 | 37230 ft | 482 kts | 225° |
| 2026-04-23 20:11 | 58.65395 | 16.12943 | 37626 ft | 480 kts | 225° |
| 2026-04-23 20:11 | 58.62806 | 16.08899 | 37979 ft | 480 kts | 225° |
| 2026-04-23 20:11 | 58.60200 | 16.04830 | 37986 ft | 485 kts | 225° |
| 2026-04-23 20:12 | 58.54965 | 15.96688 | 37995 ft | 483 kts | 225° |
| 2026-04-23 20:12 | 58.49772 | 15.88655 | 37999 ft | 479 kts | 225° |
| 2026-04-23 20:13 | 58.44593 | 15.80663 | 37995 ft | 477 kts | 225° |
| 2026-04-23 20:13 | 58.39424 | 15.72719 | 37996 ft | 477 kts | 225° |
| 2026-04-23 20:14 | 58.34302 | 15.64862 | 38043 ft | 474 kts | 225° |
| 2026-04-23 20:14 | 58.29193 | 15.56995 | 38064 ft | 471 kts | 225° |
| 2026-04-23 20:15 | 58.24082 | 15.49192 | 38058 ft | 471 kts | 224° |
| 2026-04-23 20:15 | 58.18952 | 15.41438 | 38071 ft | 471 kts | 224° |
| 2026-04-23 20:16 | 58.13833 | 15.33692 | 38069 ft | 471 kts | 224° |
| 2026-04-23 20:16 | 58.08706 | 15.25958 | 38058 ft | 470 kts | 225° |
| 2026-04-23 20:17 | 58.03608 | 15.18339 | 38066 ft | 470 kts | 224° |
| 2026-04-23 20:17 | 57.98473 | 15.10704 | 38070 ft | 470 kts | 224° |
| 2026-04-23 20:18 | 57.93335 | 15.03084 | 38070 ft | 470 kts | 224° |
| 2026-04-23 20:18 | 57.88196 | 14.95489 | 38080 ft | 470 kts | 224° |
| 2026-04-23 20:19 | 57.83049 | 14.87909 | 38081 ft | 470 kts | 224° |
| 2026-04-23 20:19 | 57.77896 | 14.80346 | 38084 ft | 470 kts | 224° |
| 2026-04-23 20:20 | 57.72736 | 14.72805 | 38080 ft | 470 kts | 224° |
| 2026-04-23 20:20 | 57.67578 | 14.65292 | 38076 ft | 470 kts | 224° |
| 2026-04-23 20:21 | 57.62449 | 14.57858 | 38075 ft | 469 kts | 224° |
| 2026-04-23 20:21 | 57.57303 | 14.50415 | 38086 ft | 467 kts | 224° |
| 2026-04-23 20:22 | 57.52165 | 14.43012 | 38077 ft | 467 kts | 224° |
| 2026-04-23 20:22 | 57.47013 | 14.35616 | 38071 ft | 467 kts | 223° |
| 2026-04-23 20:23 | 57.41868 | 14.28259 | 38058 ft | 467 kts | 223° |
| 2026-04-23 20:23 | 57.36720 | 14.20925 | 38042 ft | 466 kts | 223° |
| 2026-04-23 20:24 | 57.31572 | 14.13617 | 38048 ft | 466 kts | 223° |
| 2026-04-23 20:24 | 57.26459 | 14.06383 | 38049 ft | 466 kts | 223° |
| 2026-04-23 20:25 | 57.21314 | 13.99128 | 38103 ft | 466 kts | 223° |
| 2026-04-23 20:25 | 57.16157 | 13.91883 | 38095 ft | 466 kts | 223° |
| 2026-04-23 20:26 | 57.10984 | 13.84654 | 38092 ft | 466 kts | 223° |
| 2026-04-23 20:26 | 57.05805 | 13.77445 | 38097 ft | 467 kts | 223° |
| 2026-04-23 20:27 | 57.00613 | 13.70241 | 37891 ft | 470 kts | 223° |
| 2026-04-23 20:27 | 56.97990 | 13.66606 | 37218 ft | 472 kts | 223° |
| 2026-04-23 20:27 | 56.95380 | 13.63004 | 36494 ft | 467 kts | 222° |
| 2026-04-23 20:27 | 56.92794 | 13.59435 | 35762 ft | 463 kts | 222° |
| 2026-04-23 20:28 | 56.90234 | 13.55885 | 34940 ft | 463 kts | 222° |
| 2026-04-23 20:28 | 56.87652 | 13.52350 | 34110 ft | 463 kts | 222° |
| 2026-04-23 20:28 | 56.85073 | 13.48822 | 33139 ft | 463 kts | 221° |
| 2026-04-23 20:28 | 56.82523 | 13.45333 | 32195 ft | 464 kts | 221° |
| 2026-04-23 20:29 | 56.79945 | 13.41793 | 31249 ft | 465 kts | 221° |
| 2026-04-23 20:29 | 56.77359 | 13.38241 | 30256 ft | 467 kts | 220° |
| 2026-04-23 20:29 | 56.74736 | 13.34682 | 29028 ft | 471 kts | 220° |
| 2026-04-23 20:29 | 56.72091 | 13.31100 | 27829 ft | 480 kts | 220° |
| 2026-04-23 20:30 | 56.69368 | 13.27412 | 26579 ft | 493 kts | 220° |
| 2026-04-23 20:30 | 56.63845 | 13.19959 | 24497 ft | 489 kts | 220° |
| 2026-04-23 20:30 | 56.61136 | 13.16313 | 23521 ft | 481 kts | 220° |
| 2026-04-23 20:31 | 56.58467 | 13.12718 | 22477 ft | 473 kts | 220° |
| 2026-04-23 20:31 | 56.55848 | 13.09193 | 21537 ft | 464 kts | 220° |
| 2026-04-23 20:31 | 56.53276 | 13.05734 | 20655 ft | 456 kts | 220° |
| 2026-04-23 20:31 | 56.50754 | 13.02345 | 19803 ft | 449 kts | 220° |
| 2026-04-23 20:32 | 56.48256 | 12.98994 | 18953 ft | 444 kts | 220° |
| 2026-04-23 20:32 | 56.45779 | 12.95676 | 18050 ft | 439 kts | 220° |
| 2026-04-23 20:32 | 56.43342 | 12.92417 | 17132 ft | 434 kts | 220° |
| 2026-04-23 20:32 | 56.40959 | 12.89237 | 16299 ft | 427 kts | 220° |
| 2026-04-23 20:33 | 56.38552 | 12.86030 | 15470 ft | 422 kts | 220° |
| 2026-04-23 20:33 | 56.36237 | 12.82951 | 14681 ft | 416 kts | 220° |
| 2026-04-23 20:33 | 56.33917 | 12.79870 | 13862 ft | 412 kts | 220° |
| 2026-04-23 20:33 | 56.31624 | 12.76826 | 12961 ft | 408 kts | 220° |
| 2026-04-23 20:34 | 56.29342 | 12.73804 | 12132 ft | 403 kts | 220° |
| 2026-04-23 20:34 | 56.27118 | 12.70866 | 11863 ft | 385 kts | 220° |
| 2026-04-23 20:34 | 56.25012 | 12.68091 | 11685 ft | 366 kts | 220° |
| 2026-04-23 20:34 | 56.23003 | 12.65442 | 11521 ft | 349 kts | 220° |
| 2026-04-23 20:35 | 56.21089 | 12.62922 | 11383 ft | 334 kts | 220° |
| 2026-04-23 20:35 | 56.19250 | 12.60507 | 11239 ft | 320 kts | 221° |
| 2026-04-23 20:35 | 56.17431 | 12.58312 | 11100 ft | 312 kts | 210° |
| 2026-04-23 20:35 | 56.15347 | 12.57339 | 10873 ft | 318 kts | 186° |
| 2026-04-23 20:36 | 56.13101 | 12.57275 | 10654 ft | 320 kts | 181° |
| 2026-04-23 20:36 | 56.10869 | 12.57328 | 10421 ft | 322 kts | 181° |
| 2026-04-23 20:36 | 56.08656 | 12.57395 | 10198 ft | 321 kts | 181° |
| 2026-04-23 20:36 | 56.06427 | 12.57453 | 9962 ft | 318 kts | 181° |
| 2026-04-23 20:37 | 56.04247 | 12.57496 | 9742 ft | 309 kts | 181° |
| 2026-04-23 20:37 | 56.02114 | 12.57529 | 9492 ft | 304 kts | 181° |
| 2026-04-23 20:37 | 56.00010 | 12.57553 | 9227 ft | 302 kts | 181° |
| 2026-04-23 20:37 | 55.97906 | 12.57575 | 8972 ft | 301 kts | 181° |
| 2026-04-23 20:38 | 55.95802 | 12.57594 | 8718 ft | 301 kts | 181° |
| 2026-04-23 20:38 | 55.93740 | 12.57613 | 8470 ft | 300 kts | 181° |
| 2026-04-23 20:38 | 55.91659 | 12.57632 | 8207 ft | 299 kts | 181° |
| 2026-04-23 20:38 | 55.89575 | 12.57651 | 7960 ft | 298 kts | 181° |
| 2026-04-23 20:39 | 55.87521 | 12.57644 | 7701 ft | 292 kts | 185° |
| 2026-04-23 20:39 | 55.85582 | 12.56864 | 7449 ft | 283 kts | 203° |
| 2026-04-23 20:39 | 55.83754 | 12.55654 | 7206 ft | 278 kts | 204° |
| 2026-04-23 20:39 | 55.81960 | 12.54441 | 6974 ft | 274 kts | 204° |
| 2026-04-23 20:40 | 55.80188 | 12.53251 | 6724 ft | 272 kts | 204° |
| 2026-04-23 20:40 | 55.78422 | 12.52080 | 6484 ft | 270 kts | 203° |
| 2026-04-23 20:40 | 55.76663 | 12.50925 | 6223 ft | 268 kts | 203° |
| 2026-04-23 20:40 | 55.74921 | 12.49788 | 5966 ft | 266 kts | 202° |
| 2026-04-23 20:41 | 55.73190 | 12.48665 | 5714 ft | 265 kts | 202° |
| 2026-04-23 20:41 | 55.71469 | 12.47551 | 5458 ft | 263 kts | 202° |
| 2026-04-23 20:41 | 55.69749 | 12.46441 | 5216 ft | 261 kts | 202° |
| 2026-04-23 20:41 | 55.68037 | 12.45338 | 5094 ft | 262 kts | 202° |
| 2026-04-23 20:42 | 55.66348 | 12.44251 | 5008 ft | 260 kts | 202° |
| 2026-04-23 20:42 | 55.64654 | 12.43163 | 5006 ft | 259 kts | 202° |
| 2026-04-23 20:42 | 55.63509 | 12.42428 | 4998 ft | 258 kts | 202° |
| 2026-04-23 20:42 | 55.61262 | 12.40989 | 5005 ft | 260 kts | 202° |
| 2026-04-23 20:43 | 55.59620 | 12.39681 | 4987 ft | 258 kts | 218° |
| 2026-04-23 20:43 | 55.58690 | 12.38333 | 5012 ft | 255 kts | 225° |
| 2026-04-23 20:43 | 55.56933 | 12.35532 | 4996 ft | 257 kts | 225° |
| 2026-04-23 20:43 | 55.55591 | 12.33441 | 5001 ft | 258 kts | 224° |
| 2026-04-23 20:44 | 55.54697 | 12.32051 | 5003 ft | 258 kts | 225° |
| 2026-04-23 20:44 | 55.53348 | 12.29957 | 5011 ft | 259 kts | 224° |
| 2026-04-23 20:44 | 55.51993 | 12.27867 | 5012 ft | 259 kts | 224° |
| 2026-04-23 20:44 | 55.50626 | 12.25771 | 5010 ft | 260 kts | 224° |
| 2026-04-23 20:45 | 55.49265 | 12.23676 | 5005 ft | 260 kts | 226° |
| 2026-04-23 20:45 | 55.47970 | 12.21490 | 5002 ft | 255 kts | 228° |
| 2026-04-23 20:45 | 55.46755 | 12.19351 | 5007 ft | 237 kts | 229° |
| 2026-04-23 20:45 | 55.45644 | 12.17336 | 5002 ft | 225 kts | 230° |
| 2026-04-23 20:46 | 55.44563 | 12.15337 | 5020 ft | 224 kts | 230° |
| 2026-04-23 20:46 | 55.43484 | 12.13350 | 5011 ft | 225 kts | 230° |
| 2026-04-23 20:46 | 55.42384 | 12.11388 | 4996 ft | 226 kts | 224° |
| 2026-04-23 20:46 | 55.40963 | 12.10209 | 5008 ft | 231 kts | 189° |
| 2026-04-23 20:47 | 55.39386 | 12.10570 | 4985 ft | 233 kts | 155° |
| 2026-04-23 20:47 | 55.38146 | 12.12338 | 4807 ft | 230 kts | 122° |
| 2026-04-23 20:47 | 55.37486 | 12.14839 | 4583 ft | 223 kts | 95° |
| 2026-04-23 20:47 | 55.37560 | 12.17484 | 4378 ft | 213 kts | 76° |
| 2026-04-23 20:48 | 55.37819 | 12.20032 | 4158 ft | 211 kts | 75° |
| 2026-04-23 20:48 | 55.38090 | 12.22563 | 3942 ft | 210 kts | 75° |
| 2026-04-23 20:48 | 55.38367 | 12.25087 | 3713 ft | 210 kts | 75° |
| 2026-04-23 20:48 | 55.38652 | 12.27606 | 3505 ft | 210 kts | 75° |
| 2026-04-23 20:49 | 55.38935 | 12.30094 | 3293 ft | 210 kts | 74° |
| 2026-04-23 20:49 | 55.39512 | 12.32370 | 3075 ft | 202 kts | 44° |
| 2026-04-23 20:49 | 55.40575 | 12.33968 | 3052 ft | 202 kts | 32° |
| 2026-04-23 20:49 | 55.41797 | 12.35152 | 3003 ft | 198 kts | 25° |
| 2026-04-23 20:50 | 55.42971 | 12.36229 | 2983 ft | 180 kts | 25° |
| 2026-04-23 20:50 | 55.44015 | 12.37208 | 2976 ft | 162 kts | 26° |
| 2026-04-23 20:50 | 55.44925 | 12.38350 | 2993 ft | 162 kts | 35° |
| 2026-04-23 20:50 | 55.45792 | 12.39615 | 2993 ft | 162 kts | 36° |
| 2026-04-23 20:51 | 55.46639 | 12.40896 | 2979 ft | 158 kts | 37° |
| 2026-04-23 20:51 | 55.47467 | 12.42165 | 2989 ft | 156 kts | 37° |
| 2026-04-23 20:51 | 55.48293 | 12.43438 | 2864 ft | 159 kts | 37° |
| 2026-04-23 20:51 | 55.49121 | 12.44720 | 2673 ft | 158 kts | 37° |
| 2026-04-23 20:52 | 55.49935 | 12.45981 | 2461 ft | 157 kts | 37° |
| 2026-04-23 20:52 | 55.50746 | 12.47238 | 2247 ft | 157 kts | 37° |
| 2026-04-23 20:52 | 55.51553 | 12.48490 | 2029 ft | 148 kts | 38° |
| 2026-04-23 20:52 | 55.52292 | 12.49639 | 1843 ft | 135 kts | 37° |
| 2026-04-23 20:53 | 55.52981 | 12.50707 | 1672 ft | 129 kts | 37° |
| 2026-04-23 20:53 | 55.53662 | 12.51759 | 1507 ft | 131 kts | 37° |
| 2026-04-23 20:53 | 55.54344 | 12.52815 | 1339 ft | 131 kts | 37° |
| 2026-04-23 20:53 | 55.55029 | 12.53875 | 1163 ft | 131 kts | 37° |
| 2026-04-23 20:54 | 55.55714 | 12.54936 | 989 ft | 130 kts | 38° |
| 2026-04-23 20:54 | 55.56409 | 12.56026 | 834 ft | 134 kts | 39° |
| 2026-04-23 20:54 | 55.57111 | 12.57089 | 655 ft | 132 kts | 39° |
| 2026-04-23 20:54 | 55.57811 | 12.58172 | 472 ft | 133 kts | 40° |
| 2026-04-23 20:55 | 55.58492 | 12.59219 | 263 ft | 128 kts | 39° |
| 2026-04-23 20:55 | 55.59156 | 12.60251 | 100 ft | 126 kts | 40° |
| 2026-04-23 20:55 | 55.59814 | 12.61266 | 28 ft | 120 kts | 40° |
| 2026-04-23 20:55 | 55.60367 | 12.62119 | 22 ft | 89 kts | 42° |
| 2026-04-23 20:56 | 55.60749 | 12.62714 | 26 ft | 64 kts | 41° |
| 2026-04-23 20:56 | 55.61068 | 12.63201 | 26 ft | 57 kts | 41° |
| 2026-04-23 20:56 | 55.61346 | 12.63633 | 26 ft | 50 kts | 41° |
| 2026-04-23 20:56 | 55.61553 | 12.63936 | 24 ft | 24 kts | 26° |
| 2026-04-23 20:57 | 55.61573 | 12.63970 | 28 ft | 2 kts | 57° |
| 2026-04-23 20:57 | 55.61607 | 12.64038 | 28 ft | 10 kts | 42° |
| 2026-04-23 20:57 | 55.61645 | 12.64175 | 25 ft | 16 kts | 86° |
| 2026-04-23 20:57 | 55.61655 | 12.64403 | 25 ft | 21 kts | 85° |
| 2026-04-23 20:58 | 55.61693 | 12.64568 | 24 ft | 13 kts | 35° |
| 2026-04-23 20:58 | 55.61780 | 12.64680 | 23 ft | 18 kts | 36° |
| 2026-04-23 20:58 | 55.61893 | 12.64814 | 23 ft | 22 kts | 32° |
| 2026-04-23 20:58 | 55.61990 | 12.64923 | 23 ft | 17 kts | 34° |
| 2026-04-23 20:59 | 55.62100 | 12.65051 | 25 ft | 16 kts | 32° |
| 2026-04-23 20:59 | 55.62205 | 12.65166 | 23 ft | 19 kts | 17° |
| 2026-04-23 20:59 | 55.62294 | 12.65025 | 24 ft | 7 kts | 303° |
| 2026-04-23 20:59 | 55.62323 | 12.64948 | 25 ft | 10 kts | 304° |
| 2026-04-23 21:00 | 55.62373 | 12.64819 | 27 ft | 15 kts | 304° |
| 2026-04-23 21:00 | 55.62441 | 12.64662 | 23 ft | 17 kts | 332° |
| 2026-04-23 21:00 | 55.62566 | 12.64654 | 23 ft | 12 kts | 360° |
| 2026-04-23 21:00 | 55.62622 | 12.64661 | 23 ft | 10 kts | 6° |
| 2026-04-23 21:01 | 55.62643 | 12.64624 | 24 ft | 7 kts | 262° |
| 2026-04-23 21:01 | 55.62645 | 12.64582 | 23 ft | 2 kts | 282° |
| 2026-04-23 21:01 | 55.62648 | 12.64557 | 25 ft | 1 kts | 281° |
| 2026-04-23 21:01 | 55.62648 | 12.64556 | 25 ft | 0 kts | 281° |